sensor_id;sensor_type;location;lat;lon;timestamp;P1;durP1;ratioP1;P2;durP2;ratioP2
81191;SDS011;70665;47.652;-2.730;2023-12-20T00:00:34;7.43;;;1.60;;
81191;SDS011;70665;47.652;-2.730;2023-12-20T00:03:02;9.35;;;2.00;;
81191;SDS011;70665;47.652;-2.730;2023-12-20T00:05:28;6.88;;;1.60;;
81191;SDS011;70665;47.652;-2.730;2023-12-20T00:07:54;5.97;;;1.27;;
81191;SDS011;70665;47.652;-2.730;2023-12-20T00:10:19;7.45;;;1.95;;
81191;SDS011;70665;47.652;-2.730;2023-12-20T00:12:45;7.55;;;2.20;;
81191;SDS011;70665;47.652;-2.730;2023-12-20T00:15:10;7.93;;;1.83;;
81191;SDS011;70665;47.652;-2.730;2023-12-20T00:17:36;6.60;;;2.10;;
81191;SDS011;70665;47.652;-2.730;2023-12-20T00:20:07;8.75;;;2.10;;
81191;SDS011;70665;47.652;-2.730;2023-12-20T00:22:33;5.53;;;1.40;;
81191;SDS011;70665;47.652;-2.730;2023-12-20T00:24:59;6.15;;;1.45;;
81191;SDS011;70665;47.652;-2.730;2023-12-20T00:27:24;7.85;;;1.45;;
81191;SDS011;70665;47.652;-2.730;2023-12-20T00:29:50;10.48;;;1.90;;
81191;SDS011;70665;47.652;-2.730;2023-12-20T00:32:15;7.50;;;1.77;;
81191;SDS011;70665;47.652;-2.730;2023-12-20T00:34:42;8.57;;;1.40;;
81191;SDS011;70665;47.652;-2.730;2023-12-20T00:37:08;10.93;;;1.83;;
81191;SDS011;70665;47.652;-2.730;2023-12-20T00:39:33;5.35;;;1.20;;
81191;SDS011;70665;47.652;-2.730;2023-12-20T00:41:59;11.23;;;1.90;;
81191;SDS011;70665;47.652;-2.730;2023-12-20T00:44:25;5.80;;;1.50;;
81191;SDS011;70665;47.652;-2.730;2023-12-20T00:49:16;9.68;;;2.00;;
81191;SDS011;70665;47.652;-2.730;2023-12-20T00:51:42;7.30;;;1.73;;
81191;SDS011;70665;47.652;-2.730;2023-12-20T00:54:08;10.70;;;1.60;;
81191;SDS011;70665;47.652;-2.730;2023-12-20T00:59:00;7.22;;;1.95;;
81191;SDS011;70665;47.652;-2.730;2023-12-20T01:01:25;9.70;;;2.08;;
81191;SDS011;70665;47.652;-2.730;2023-12-20T01:03:51;8.10;;;1.98;;
81191;SDS011;70665;47.652;-2.730;2023-12-20T01:06:17;8.95;;;2.35;;
81191;SDS011;70665;47.652;-2.730;2023-12-20T01:08:43;8.93;;;1.73;;
81191;SDS011;70665;47.652;-2.730;2023-12-20T01:11:09;5.70;;;1.70;;
81191;SDS011;70665;47.652;-2.730;2023-12-20T01:13:34;10.95;;;1.75;;
81191;SDS011;70665;47.652;-2.730;2023-12-20T01:16:00;7.13;;;2.30;;
81191;SDS011;70665;47.652;-2.730;2023-12-20T01:18:26;12.23;;;2.55;;
81191;SDS011;70665;47.652;-2.730;2023-12-20T01:20:52;8.02;;;1.88;;
81191;SDS011;70665;47.652;-2.730;2023-12-20T01:23:17;8.55;;;1.85;;
81191;SDS011;70665;47.652;-2.730;2023-12-20T01:25:43;11.40;;;1.95;;
81191;SDS011;70665;47.652;-2.730;2023-12-20T01:28:09;7.57;;;1.58;;
81191;SDS011;70665;47.652;-2.730;2023-12-20T01:30:34;7.15;;;2.20;;
81191;SDS011;70665;47.652;-2.730;2023-12-20T01:33:00;9.60;;;2.15;;
81191;SDS011;70665;47.652;-2.730;2023-12-20T01:35:26;6.43;;;1.95;;
81191;SDS011;70665;47.652;-2.730;2023-12-20T01:37:52;6.68;;;1.45;;
81191;SDS011;70665;47.652;-2.730;2023-12-20T01:40:21;7.15;;;1.48;;
81191;SDS011;70665;47.652;-2.730;2023-12-20T01:42:47;8.63;;;1.60;;
81191;SDS011;70665;47.652;-2.730;2023-12-20T01:45:23;8.35;;;1.75;;
81191;SDS011;70665;47.652;-2.730;2023-12-20T01:47:52;12.38;;;3.00;;
81191;SDS011;70665;47.652;-2.730;2023-12-20T01:50:18;8.52;;;1.42;;
81191;SDS011;70665;47.652;-2.730;2023-12-20T01:52:44;9.88;;;2.10;;
81191;SDS011;70665;47.652;-2.730;2023-12-20T01:55:10;7.13;;;1.60;;
81191;SDS011;70665;47.652;-2.730;2023-12-20T01:57:40;6.30;;;1.60;;
81191;SDS011;70665;47.652;-2.730;2023-12-20T02:00:06;4.57;;;1.45;;
81191;SDS011;70665;47.652;-2.730;2023-12-20T02:02:34;9.57;;;2.03;;
81191;SDS011;70665;47.652;-2.730;2023-12-20T02:05:04;8.52;;;1.67;;
81191;SDS011;70665;47.652;-2.730;2023-12-20T02:07:30;6.35;;;1.17;;
81191;SDS011;70665;47.652;-2.730;2023-12-20T02:09:56;7.93;;;1.60;;
81191;SDS011;70665;47.652;-2.730;2023-12-20T02:12:22;6.82;;;1.85;;
81191;SDS011;70665;47.652;-2.730;2023-12-20T02:14:48;12.13;;;2.75;;
81191;SDS011;70665;47.652;-2.730;2023-12-20T02:17:14;7.60;;;2.63;;
81191;SDS011;70665;47.652;-2.730;2023-12-20T02:19:40;8.02;;;2.33;;
81191;SDS011;70665;47.652;-2.730;2023-12-20T02:22:12;4.32;;;1.42;;
81191;SDS011;70665;47.652;-2.730;2023-12-20T02:24:38;8.65;;;2.00;;
81191;SDS011;70665;47.652;-2.730;2023-12-20T02:27:05;6.65;;;1.77;;
81191;SDS011;70665;47.652;-2.730;2023-12-20T02:29:32;6.68;;;1.60;;
81191;SDS011;70665;47.652;-2.730;2023-12-20T02:31:58;11.02;;;1.40;;
81191;SDS011;70665;47.652;-2.730;2023-12-20T02:34:24;7.35;;;1.70;;
81191;SDS011;70665;47.652;-2.730;2023-12-20T02:36:50;6.47;;;1.83;;
81191;SDS011;70665;47.652;-2.730;2023-12-20T02:39:16;7.60;;;1.80;;
81191;SDS011;70665;47.652;-2.730;2023-12-20T02:41:41;10.98;;;1.63;;
81191;SDS011;70665;47.652;-2.730;2023-12-20T02:44:07;6.68;;;1.60;;
81191;SDS011;70665;47.652;-2.730;2023-12-20T02:46:33;6.57;;;1.63;;
81191;SDS011;70665;47.652;-2.730;2023-12-20T02:48:59;10.65;;;1.63;;
81191;SDS011;70665;47.652;-2.730;2023-12-20T02:51:24;6.63;;;1.73;;
81191;SDS011;70665;47.652;-2.730;2023-12-20T02:53:50;8.65;;;1.38;;
81191;SDS011;70665;47.652;-2.730;2023-12-20T02:56:15;6.47;;;1.00;;
81191;SDS011;70665;47.652;-2.730;2023-12-20T02:58:41;9.20;;;1.90;;
81191;SDS011;70665;47.652;-2.730;2023-12-20T03:01:06;11.35;;;1.50;;
81191;SDS011;70665;47.652;-2.730;2023-12-20T03:03:33;9.93;;;1.83;;
81191;SDS011;70665;47.652;-2.730;2023-12-20T03:05:59;6.40;;;1.60;;
81191;SDS011;70665;47.652;-2.730;2023-12-20T03:08:25;6.55;;;1.67;;
81191;SDS011;70665;47.652;-2.730;2023-12-20T03:10:51;11.38;;;1.60;;
81191;SDS011;70665;47.652;-2.730;2023-12-20T03:13:16;5.43;;;1.42;;
81191;SDS011;70665;47.652;-2.730;2023-12-20T03:15:42;7.50;;;1.85;;
81191;SDS011;70665;47.652;-2.730;2023-12-20T03:18:07;3.55;;;1.10;;
81191;SDS011;70665;47.652;-2.730;2023-12-20T03:20:33;8.30;;;2.22;;
81191;SDS011;70665;47.652;-2.730;2023-12-20T03:23:02;9.80;;;2.25;;
81191;SDS011;70665;47.652;-2.730;2023-12-20T03:25:28;7.85;;;1.63;;
81191;SDS011;70665;47.652;-2.730;2023-12-20T03:27:54;8.85;;;1.63;;
81191;SDS011;70665;47.652;-2.730;2023-12-20T03:30:20;8.82;;;1.55;;
81191;SDS011;70665;47.652;-2.730;2023-12-20T03:32:46;6.57;;;1.50;;
81191;SDS011;70665;47.652;-2.730;2023-12-20T03:35:12;7.18;;;1.35;;
81191;SDS011;70665;47.652;-2.730;2023-12-20T03:37:38;3.97;;;1.52;;
81191;SDS011;70665;47.652;-2.730;2023-12-20T03:40:03;4.43;;;1.92;;
81191;SDS011;70665;47.652;-2.730;2023-12-20T03:42:30;8.10;;;1.25;;
81191;SDS011;70665;47.652;-2.730;2023-12-20T03:44:55;6.15;;;1.50;;
81191;SDS011;70665;47.652;-2.730;2023-12-20T03:47:21;4.13;;;1.08;;
81191;SDS011;70665;47.652;-2.730;2023-12-20T03:49:47;12.20;;;1.70;;
81191;SDS011;70665;47.652;-2.730;2023-12-20T03:52:12;7.70;;;1.15;;
81191;SDS011;70665;47.652;-2.730;2023-12-20T03:54:38;7.22;;;2.05;;
81191;SDS011;70665;47.652;-2.730;2023-12-20T03:57:05;8.75;;;1.67;;
81191;SDS011;70665;47.652;-2.730;2023-12-20T03:59:34;7.00;;;1.77;;
81191;SDS011;70665;47.652;-2.730;2023-12-20T04:02:01;9.00;;;1.80;;
81191;SDS011;70665;47.652;-2.730;2023-12-20T04:04:27;5.90;;;1.10;;
81191;SDS011;70665;47.652;-2.730;2023-12-20T04:06:52;8.88;;;1.50;;
81191;SDS011;70665;47.652;-2.730;2023-12-20T04:09:18;7.57;;;1.35;;
81191;SDS011;70665;47.652;-2.730;2023-12-20T04:11:43;8.73;;;1.67;;
81191;SDS011;70665;47.652;-2.730;2023-12-20T04:14:09;5.75;;;1.13;;
81191;SDS011;70665;47.652;-2.730;2023-12-20T04:16:35;5.78;;;2.15;;
81191;SDS011;70665;47.652;-2.730;2023-12-20T04:19:01;5.75;;;1.35;;
81191;SDS011;70665;47.652;-2.730;2023-12-20T04:21:27;8.40;;;1.63;;
81191;SDS011;70665;47.652;-2.730;2023-12-20T04:23:53;7.70;;;1.35;;
81191;SDS011;70665;47.652;-2.730;2023-12-20T04:26:18;6.95;;;1.65;;
81191;SDS011;70665;47.652;-2.730;2023-12-20T04:28:44;6.20;;;1.90;;
81191;SDS011;70665;47.652;-2.730;2023-12-20T04:31:09;7.05;;;1.25;;
81191;SDS011;70665;47.652;-2.730;2023-12-20T04:33:35;6.25;;;1.30;;
81191;SDS011;70665;47.652;-2.730;2023-12-20T04:36:00;9.98;;;1.30;;
81191;SDS011;70665;47.652;-2.730;2023-12-20T04:38:26;11.68;;;2.15;;
81191;SDS011;70665;47.652;-2.730;2023-12-20T04:40:51;4.13;;;1.10;;
81191;SDS011;70665;47.652;-2.730;2023-12-20T04:43:17;6.63;;;1.90;;
81191;SDS011;70665;47.652;-2.730;2023-12-20T04:45:43;11.15;;;1.75;;
81191;SDS011;70665;47.652;-2.730;2023-12-20T04:48:08;7.82;;;1.40;;
81191;SDS011;70665;47.652;-2.730;2023-12-20T04:50:34;5.82;;;2.25;;
81191;SDS011;70665;47.652;-2.730;2023-12-20T04:52:59;7.68;;;2.30;;
81191;SDS011;70665;47.652;-2.730;2023-12-20T04:55:25;8.25;;;1.77;;
81191;SDS011;70665;47.652;-2.730;2023-12-20T04:57:51;5.43;;;1.85;;
81191;SDS011;70665;47.652;-2.730;2023-12-20T05:00:17;5.40;;;1.35;;
81191;SDS011;70665;47.652;-2.730;2023-12-20T05:02:42;5.97;;;1.40;;
81191;SDS011;70665;47.652;-2.730;2023-12-20T05:05:08;6.95;;;1.60;;
81191;SDS011;70665;47.652;-2.730;2023-12-20T05:07:34;10.05;;;1.60;;
81191;SDS011;70665;47.652;-2.730;2023-12-20T05:09:59;8.45;;;1.85;;
81191;SDS011;70665;47.652;-2.730;2023-12-20T05:12:25;4.18;;;1.10;;
81191;SDS011;70665;47.652;-2.730;2023-12-20T05:14:51;6.43;;;1.27;;
81191;SDS011;70665;47.652;-2.730;2023-12-20T05:17:17;5.65;;;1.00;;
81191;SDS011;70665;47.652;-2.730;2023-12-20T05:19:43;5.55;;;1.48;;
81191;SDS011;70665;47.652;-2.730;2023-12-20T05:22:09;4.20;;;1.48;;
81191;SDS011;70665;47.652;-2.730;2023-12-20T05:24:35;15.70;;;1.98;;
81191;SDS011;70665;47.652;-2.730;2023-12-20T05:27:00;8.82;;;1.58;;
81191;SDS011;70665;47.652;-2.730;2023-12-20T05:29:26;3.22;;;1.45;;
81191;SDS011;70665;47.652;-2.730;2023-12-20T05:31:51;10.02;;;1.60;;
81191;SDS011;70665;47.652;-2.730;2023-12-20T05:34:17;7.22;;;1.63;;
81191;SDS011;70665;47.652;-2.730;2023-12-20T05:36:43;6.03;;;1.70;;
81191;SDS011;70665;47.652;-2.730;2023-12-20T05:39:08;5.80;;;1.63;;
81191;SDS011;70665;47.652;-2.730;2023-12-20T05:41:34;5.20;;;1.38;;
81191;SDS011;70665;47.652;-2.730;2023-12-20T05:44:00;8.40;;;2.10;;
81191;SDS011;70665;47.652;-2.730;2023-12-20T05:46:25;8.65;;;1.67;;
81191;SDS011;70665;47.652;-2.730;2023-12-20T05:48:51;8.43;;;1.58;;
81191;SDS011;70665;47.652;-2.730;2023-12-20T05:51:17;8.18;;;1.60;;
81191;SDS011;70665;47.652;-2.730;2023-12-20T05:53:43;12.70;;;1.60;;
81191;SDS011;70665;47.652;-2.730;2023-12-20T05:56:09;7.75;;;2.15;;
81191;SDS011;70665;47.652;-2.730;2023-12-20T05:58:35;7.65;;;2.20;;
81191;SDS011;70665;47.652;-2.730;2023-12-20T06:01:04;6.93;;;2.30;;
81191;SDS011;70665;47.652;-2.730;2023-12-20T06:03:30;8.40;;;2.22;;
81191;SDS011;70665;47.652;-2.730;2023-12-20T06:05:56;4.72;;;1.80;;
81191;SDS011;70665;47.652;-2.730;2023-12-20T06:08:22;6.65;;;2.08;;
81191;SDS011;70665;47.652;-2.730;2023-12-20T06:10:48;5.85;;;1.88;;
81191;SDS011;70665;47.652;-2.730;2023-12-20T06:13:14;7.40;;;1.98;;
81191;SDS011;70665;47.652;-2.730;2023-12-20T06:15:40;7.85;;;2.30;;
81191;SDS011;70665;47.652;-2.730;2023-12-20T06:18:06;8.38;;;3.03;;
81191;SDS011;70665;47.652;-2.730;2023-12-20T06:20:32;5.30;;;1.80;;
81191;SDS011;70665;47.652;-2.730;2023-12-20T06:22:58;7.75;;;2.30;;
81191;SDS011;70665;47.652;-2.730;2023-12-20T06:25:23;10.02;;;2.53;;
81191;SDS011;70665;47.652;-2.730;2023-12-20T06:27:49;6.55;;;2.30;;
81191;SDS011;70665;47.652;-2.730;2023-12-20T06:30:15;7.03;;;2.30;;
81191;SDS011;70665;47.652;-2.730;2023-12-20T06:32:41;6.57;;;1.88;;
81191;SDS011;70665;47.652;-2.730;2023-12-20T06:35:08;8.35;;;2.25;;
81191;SDS011;70665;47.652;-2.730;2023-12-20T06:37:34;6.68;;;2.35;;
81191;SDS011;70665;47.652;-2.730;2023-12-20T06:39:59;7.55;;;2.33;;
81191;SDS011;70665;47.652;-2.730;2023-12-20T06:42:25;10.13;;;3.13;;
81191;SDS011;70665;47.652;-2.730;2023-12-20T06:44:50;11.48;;;2.90;;
81191;SDS011;70665;47.652;-2.730;2023-12-20T06:47:16;10.38;;;3.03;;
81191;SDS011;70665;47.652;-2.730;2023-12-20T06:49:42;4.95;;;2.10;;
81191;SDS011;70665;47.652;-2.730;2023-12-20T06:52:07;10.98;;;2.40;;
81191;SDS011;70665;47.652;-2.730;2023-12-20T06:54:33;6.22;;;2.20;;
81191;SDS011;70665;47.652;-2.730;2023-12-20T06:59:25;6.43;;;2.22;;
81191;SDS011;70665;47.652;-2.730;2023-12-20T07:01:51;6.85;;;2.17;;
81191;SDS011;70665;47.652;-2.730;2023-12-20T07:04:16;9.35;;;2.53;;
81191;SDS011;70665;47.652;-2.730;2023-12-20T07:06:45;6.55;;;2.63;;
81191;SDS011;70665;47.652;-2.730;2023-12-20T07:09:11;6.13;;;2.10;;
81191;SDS011;70665;47.652;-2.730;2023-12-20T07:11:38;7.75;;;2.50;;
81191;SDS011;70665;47.652;-2.730;2023-12-20T07:14:04;5.00;;;2.10;;
81191;SDS011;70665;47.652;-2.730;2023-12-20T07:16:29;6.07;;;2.00;;
81191;SDS011;70665;47.652;-2.730;2023-12-20T07:18:55;7.60;;;2.13;;
81191;SDS011;70665;47.652;-2.730;2023-12-20T07:21:22;8.90;;;2.42;;
81191;SDS011;70665;47.652;-2.730;2023-12-20T07:23:47;6.88;;;2.95;;
81191;SDS011;70665;47.652;-2.730;2023-12-20T07:26:13;9.13;;;2.00;;
81191;SDS011;70665;47.652;-2.730;2023-12-20T07:28:39;5.75;;;2.13;;
81191;SDS011;70665;47.652;-2.730;2023-12-20T07:31:05;5.13;;;2.47;;
81191;SDS011;70665;47.652;-2.730;2023-12-20T07:33:31;9.88;;;3.80;;
81191;SDS011;70665;47.652;-2.730;2023-12-20T07:35:56;7.78;;;4.18;;
81191;SDS011;70665;47.652;-2.730;2023-12-20T07:38:22;12.23;;;3.60;;
81191;SDS011;70665;47.652;-2.730;2023-12-20T07:40:48;10.43;;;3.45;;
81191;SDS011;70665;47.652;-2.730;2023-12-20T07:43:14;8.20;;;3.13;;
81191;SDS011;70665;47.652;-2.730;2023-12-20T07:45:40;8.75;;;3.00;;
81191;SDS011;70665;47.652;-2.730;2023-12-20T07:48:06;8.05;;;3.30;;
81191;SDS011;70665;47.652;-2.730;2023-12-20T07:50:32;11.43;;;3.47;;
81191;SDS011;70665;47.652;-2.730;2023-12-20T07:52:58;9.50;;;3.67;;
81191;SDS011;70665;47.652;-2.730;2023-12-20T07:55:25;8.98;;;3.15;;
81191;SDS011;70665;47.652;-2.730;2023-12-20T07:57:51;9.18;;;3.80;;
81191;SDS011;70665;47.652;-2.730;2023-12-20T08:00:17;9.23;;;3.35;;
81191;SDS011;70665;47.652;-2.730;2023-12-20T08:02:43;8.52;;;3.08;;
81191;SDS011;70665;47.652;-2.730;2023-12-20T08:05:09;9.07;;;3.08;;
81191;SDS011;70665;47.652;-2.730;2023-12-20T08:07:34;9.23;;;3.40;;
81191;SDS011;70665;47.652;-2.730;2023-12-20T08:10:00;9.38;;;3.63;;
81191;SDS011;70665;47.652;-2.730;2023-12-20T08:12:26;11.07;;;3.75;;
81191;SDS011;70665;47.652;-2.730;2023-12-20T08:17:19;8.65;;;2.65;;
81191;SDS011;70665;47.652;-2.730;2023-12-20T08:19:44;8.95;;;3.05;;
81191;SDS011;70665;47.652;-2.730;2023-12-20T08:22:10;8.95;;;3.30;;
81191;SDS011;70665;47.652;-2.730;2023-12-20T08:24:36;8.32;;;4.03;;
81191;SDS011;70665;47.652;-2.730;2023-12-20T08:27:04;8.35;;;3.55;;
81191;SDS011;70665;47.652;-2.730;2023-12-20T08:29:30;8.45;;;3.47;;
81191;SDS011;70665;47.652;-2.730;2023-12-20T08:31:55;5.75;;;3.13;;
81191;SDS011;70665;47.652;-2.730;2023-12-20T08:34:21;11.23;;;3.28;;
81191;SDS011;70665;47.652;-2.730;2023-12-20T08:36:48;10.07;;;2.97;;
81191;SDS011;70665;47.652;-2.730;2023-12-20T08:39:15;7.90;;;3.10;;
81191;SDS011;70665;47.652;-2.730;2023-12-20T08:41:41;7.65;;;3.15;;
81191;SDS011;70665;47.652;-2.730;2023-12-20T08:44:06;8.98;;;3.28;;
81191;SDS011;70665;47.652;-2.730;2023-12-20T08:46:32;9.02;;;3.65;;
81191;SDS011;70665;47.652;-2.730;2023-12-20T08:48:58;11.50;;;3.15;;
81191;SDS011;70665;47.652;-2.730;2023-12-20T08:51:23;9.07;;;3.45;;
81191;SDS011;70665;47.652;-2.730;2023-12-20T08:53:50;6.72;;;3.45;;
81191;SDS011;70665;47.652;-2.730;2023-12-20T08:56:16;9.15;;;2.92;;
81191;SDS011;70665;47.652;-2.730;2023-12-20T08:58:43;9.80;;;3.50;;
81191;SDS011;70665;47.652;-2.730;2023-12-20T09:03:34;10.27;;;3.65;;
81191;SDS011;70665;47.652;-2.730;2023-12-20T09:06:00;8.57;;;2.83;;
81191;SDS011;70665;47.652;-2.730;2023-12-20T09:08:26;12.60;;;3.65;;
81191;SDS011;70665;47.652;-2.730;2023-12-20T09:10:51;9.32;;;4.05;;
81191;SDS011;70665;47.652;-2.730;2023-12-20T09:13:17;10.13;;;3.40;;
81191;SDS011;70665;47.652;-2.730;2023-12-20T09:15:43;9.45;;;3.33;;
81191;SDS011;70665;47.652;-2.730;2023-12-20T09:18:09;12.90;;;3.70;;
81191;SDS011;70665;47.652;-2.730;2023-12-20T09:20:35;7.63;;;3.40;;
81191;SDS011;70665;47.652;-2.730;2023-12-20T09:23:00;11.38;;;3.45;;
81191;SDS011;70665;47.652;-2.730;2023-12-20T09:25:26;10.80;;;3.70;;
81191;SDS011;70665;47.652;-2.730;2023-12-20T09:27:52;9.82;;;3.58;;
81191;SDS011;70665;47.652;-2.730;2023-12-20T09:30:18;10.32;;;3.22;;
81191;SDS011;70665;47.652;-2.730;2023-12-20T09:32:45;10.07;;;3.15;;
81191;SDS011;70665;47.652;-2.730;2023-12-20T09:37:36;14.52;;;4.10;;
81191;SDS011;70665;47.652;-2.730;2023-12-20T09:40:02;10.18;;;3.00;;
81191;SDS011;70665;47.652;-2.730;2023-12-20T09:45:03;13.68;;;3.35;;
81191;SDS011;70665;47.652;-2.730;2023-12-20T09:47:33;11.35;;;3.03;;
81191;SDS011;70665;47.652;-2.730;2023-12-20T09:49:59;10.60;;;3.17;;
81191;SDS011;70665;47.652;-2.730;2023-12-20T09:52:25;9.25;;;2.90;;
81191;SDS011;70665;47.652;-2.730;2023-12-20T09:54:51;13.70;;;4.07;;
81191;SDS011;70665;47.652;-2.730;2023-12-20T09:57:18;13.85;;;3.10;;
81191;SDS011;70665;47.652;-2.730;2023-12-20T09:59:43;15.63;;;3.05;;
81191;SDS011;70665;47.652;-2.730;2023-12-20T10:02:11;13.20;;;2.35;;
81191;SDS011;70665;47.652;-2.730;2023-12-20T10:04:46;9.77;;;2.38;;
81191;SDS011;70665;47.652;-2.730;2023-12-20T10:07:13;16.23;;;2.80;;
81191;SDS011;70665;47.652;-2.730;2023-12-20T10:09:38;10.80;;;2.58;;
81191;SDS011;70665;47.652;-2.730;2023-12-20T10:14:32;14.40;;;2.60;;
81191;SDS011;70665;47.652;-2.730;2023-12-20T10:17:03;11.38;;;2.28;;
81191;SDS011;70665;47.652;-2.730;2023-12-20T10:19:30;8.20;;;2.38;;
81191;SDS011;70665;47.652;-2.730;2023-12-20T10:21:57;7.90;;;2.60;;
81191;SDS011;70665;47.652;-2.730;2023-12-20T10:24:24;20.58;;;2.65;;
81191;SDS011;70665;47.652;-2.730;2023-12-20T10:27:00;16.42;;;2.47;;
81191;SDS011;70665;47.652;-2.730;2023-12-20T10:29:36;9.80;;;2.13;;
81191;SDS011;70665;47.652;-2.730;2023-12-20T10:32:22;12.70;;;2.47;;
81191;SDS011;70665;47.652;-2.730;2023-12-20T10:34:52;12.25;;;3.05;;
81191;SDS011;70665;47.652;-2.730;2023-12-20T10:37:19;8.57;;;2.08;;
81191;SDS011;70665;47.652;-2.730;2023-12-20T10:39:51;8.38;;;2.25;;
81191;SDS011;70665;47.652;-2.730;2023-12-20T10:42:21;12.05;;;3.00;;
81191;SDS011;70665;47.652;-2.730;2023-12-20T10:44:48;11.65;;;2.78;;
81191;SDS011;70665;47.652;-2.730;2023-12-20T10:47:15;8.77;;;2.35;;
81191;SDS011;70665;47.652;-2.730;2023-12-20T10:49:42;14.45;;;2.58;;
81191;SDS011;70665;47.652;-2.730;2023-12-20T10:52:09;9.68;;;2.33;;
81191;SDS011;70665;47.652;-2.730;2023-12-20T10:54:36;14.55;;;2.45;;
81191;SDS011;70665;47.652;-2.730;2023-12-20T10:57:03;15.52;;;2.80;;
81191;SDS011;70665;47.652;-2.730;2023-12-20T10:59:30;10.05;;;2.35;;
81191;SDS011;70665;47.652;-2.730;2023-12-20T11:01:59;16.92;;;2.08;;
81191;SDS011;70665;47.652;-2.730;2023-12-20T11:04:30;11.68;;;2.58;;
81191;SDS011;70665;47.652;-2.730;2023-12-20T11:07:22;6.63;;;2.10;;
81191;SDS011;70665;47.652;-2.730;2023-12-20T11:09:58;9.88;;;2.35;;
81191;SDS011;70665;47.652;-2.730;2023-12-20T11:12:47;10.05;;;2.13;;
81191;SDS011;70665;47.652;-2.730;2023-12-20T11:15:18;11.45;;;2.00;;
81191;SDS011;70665;47.652;-2.730;2023-12-20T11:17:46;10.60;;;2.80;;
81191;SDS011;70665;47.652;-2.730;2023-12-20T11:20:20;9.40;;;2.45;;
81191;SDS011;70665;47.652;-2.730;2023-12-20T11:23:08;6.10;;;1.70;;
81191;SDS011;70665;47.652;-2.730;2023-12-20T11:28:29;8.88;;;2.05;;
81191;SDS011;70665;47.652;-2.730;2023-12-20T11:30:55;8.95;;;2.65;;
81191;SDS011;70665;47.652;-2.730;2023-12-20T11:33:25;8.43;;;2.40;;
81191;SDS011;70665;47.652;-2.730;2023-12-20T11:35:55;8.52;;;2.25;;
81191;SDS011;70665;47.652;-2.730;2023-12-20T11:38:22;8.40;;;2.00;;
81191;SDS011;70665;47.652;-2.730;2023-12-20T11:40:49;11.40;;;2.13;;
81191;SDS011;70665;47.652;-2.730;2023-12-20T11:46:07;17.38;;;2.67;;
81191;SDS011;70665;47.652;-2.730;2023-12-20T11:48:35;8.98;;;1.98;;
81191;SDS011;70665;47.652;-2.730;2023-12-20T11:51:02;13.23;;;2.25;;
81191;SDS011;70665;47.652;-2.730;2023-12-20T11:53:34;9.30;;;2.30;;
81191;SDS011;70665;47.652;-2.730;2023-12-20T11:56:00;10.90;;;2.30;;
81191;SDS011;70665;47.652;-2.730;2023-12-20T11:58:28;7.60;;;1.83;;
81191;SDS011;70665;47.652;-2.730;2023-12-20T12:00:53;11.05;;;1.95;;
81191;SDS011;70665;47.652;-2.730;2023-12-20T12:03:20;12.32;;;2.00;;
81191;SDS011;70665;47.652;-2.730;2023-12-20T12:05:49;10.23;;;1.95;;
81191;SDS011;70665;47.652;-2.730;2023-12-20T12:08:15;6.75;;;2.03;;
81191;SDS011;70665;47.652;-2.730;2023-12-20T12:10:42;13.93;;;2.22;;
81191;SDS011;70665;47.652;-2.730;2023-12-20T12:13:11;11.32;;;2.33;;
81191;SDS011;70665;47.652;-2.730;2023-12-20T12:15:37;11.20;;;1.95;;
81191;SDS011;70665;47.652;-2.730;2023-12-20T12:18:03;11.30;;;2.03;;
81191;SDS011;70665;47.652;-2.730;2023-12-20T12:20:30;8.48;;;1.75;;
81191;SDS011;70665;47.652;-2.730;2023-12-20T12:23:02;11.93;;;1.85;;
81191;SDS011;70665;47.652;-2.730;2023-12-20T12:25:31;8.27;;;1.48;;
81191;SDS011;70665;47.652;-2.730;2023-12-20T12:28:00;8.43;;;1.67;;
81191;SDS011;70665;47.652;-2.730;2023-12-20T12:30:26;9.43;;;1.33;;
81191;SDS011;70665;47.652;-2.730;2023-12-20T12:32:52;4.53;;;1.88;;
81191;SDS011;70665;47.652;-2.730;2023-12-20T12:35:18;7.80;;;1.10;;
81191;SDS011;70665;47.652;-2.730;2023-12-20T12:37:45;14.43;;;2.15;;
81191;SDS011;70665;47.652;-2.730;2023-12-20T12:40:11;3.65;;;1.20;;
81191;SDS011;70665;47.652;-2.730;2023-12-20T12:42:42;8.35;;;1.52;;
81191;SDS011;70665;47.652;-2.730;2023-12-20T12:45:08;9.52;;;1.50;;
81191;SDS011;70665;47.652;-2.730;2023-12-20T12:47:34;5.93;;;1.35;;
81191;SDS011;70665;47.652;-2.730;2023-12-20T12:50:00;8.90;;;1.58;;
81191;SDS011;70665;47.652;-2.730;2023-12-20T12:52:26;5.10;;;1.40;;
81191;SDS011;70665;47.652;-2.730;2023-12-20T12:54:52;5.53;;;1.45;;
81191;SDS011;70665;47.652;-2.730;2023-12-20T12:57:18;7.90;;;1.40;;
81191;SDS011;70665;47.652;-2.730;2023-12-20T12:59:44;9.07;;;1.95;;
81191;SDS011;70665;47.652;-2.730;2023-12-20T13:02:13;4.88;;;1.25;;
81191;SDS011;70665;47.652;-2.730;2023-12-20T13:04:40;9.05;;;1.75;;
81191;SDS011;70665;47.652;-2.730;2023-12-20T13:07:06;5.97;;;1.35;;
81191;SDS011;70665;47.652;-2.730;2023-12-20T13:09:38;8.07;;;2.10;;
81191;SDS011;70665;47.652;-2.730;2023-12-20T13:12:05;11.57;;;1.95;;
81191;SDS011;70665;47.652;-2.730;2023-12-20T13:14:34;9.65;;;1.90;;
81191;SDS011;70665;47.652;-2.730;2023-12-20T13:17:03;6.88;;;1.65;;
81191;SDS011;70665;47.652;-2.730;2023-12-20T13:19:29;6.18;;;1.30;;
81191;SDS011;70665;47.652;-2.730;2023-12-20T13:21:55;12.07;;;1.50;;
81191;SDS011;70665;47.652;-2.730;2023-12-20T13:24:21;9.05;;;1.58;;
81191;SDS011;70665;47.652;-2.730;2023-12-20T13:26:47;6.15;;;1.40;;
81191;SDS011;70665;47.652;-2.730;2023-12-20T13:29:12;10.57;;;1.75;;
81191;SDS011;70665;47.652;-2.730;2023-12-20T13:31:38;8.30;;;1.70;;
81191;SDS011;70665;47.652;-2.730;2023-12-20T13:34:05;8.32;;;2.28;;
81191;SDS011;70665;47.652;-2.730;2023-12-20T13:36:31;8.25;;;1.50;;
81191;SDS011;70665;47.652;-2.730;2023-12-20T13:38:57;7.22;;;1.23;;
81191;SDS011;70665;47.652;-2.730;2023-12-20T13:41:22;5.30;;;1.40;;
81191;SDS011;70665;47.652;-2.730;2023-12-20T13:43:48;8.50;;;1.40;;
81191;SDS011;70665;47.652;-2.730;2023-12-20T13:46:14;6.32;;;1.73;;
81191;SDS011;70665;47.652;-2.730;2023-12-20T13:48:40;6.57;;;1.85;;
81191;SDS011;70665;47.652;-2.730;2023-12-20T13:51:06;10.73;;;1.73;;
81191;SDS011;70665;47.652;-2.730;2023-12-20T13:53:32;5.55;;;1.40;;
81191;SDS011;70665;47.652;-2.730;2023-12-20T13:55:58;5.95;;;1.83;;
81191;SDS011;70665;47.652;-2.730;2023-12-20T13:58:25;4.70;;;1.52;;
81191;SDS011;70665;47.652;-2.730;2023-12-20T14:00:50;8.32;;;1.60;;
81191;SDS011;70665;47.652;-2.730;2023-12-20T14:05:42;6.45;;;1.50;;
81191;SDS011;70665;47.652;-2.730;2023-12-20T14:10:34;6.47;;;1.30;;
81191;SDS011;70665;47.652;-2.730;2023-12-20T14:15:25;6.43;;;1.23;;
81191;SDS011;70665;47.652;-2.730;2023-12-20T14:20:16;8.40;;;1.35;;
81191;SDS011;70665;47.652;-2.730;2023-12-20T14:22:43;4.80;;;1.25;;
81191;SDS011;70665;47.652;-2.730;2023-12-20T14:25:15;5.93;;;1.75;;
81191;SDS011;70665;47.652;-2.730;2023-12-20T14:27:41;3.92;;;1.15;;
81191;SDS011;70665;47.652;-2.730;2023-12-20T14:30:10;8.70;;;1.95;;
81191;SDS011;70665;47.652;-2.730;2023-12-20T14:32:36;6.90;;;1.40;;
81191;SDS011;70665;47.652;-2.730;2023-12-20T14:35:04;4.85;;;1.30;;
81191;SDS011;70665;47.652;-2.730;2023-12-20T14:37:33;4.03;;;1.30;;
81191;SDS011;70665;47.652;-2.730;2023-12-20T14:40:00;5.72;;;1.20;;
81191;SDS011;70665;47.652;-2.730;2023-12-20T14:44:51;5.03;;;1.20;;
81191;SDS011;70665;47.652;-2.730;2023-12-20T14:49:42;5.85;;;1.30;;
81191;SDS011;70665;47.652;-2.730;2023-12-20T14:54:37;4.50;;;1.00;;
81191;SDS011;70665;47.652;-2.730;2023-12-20T14:57:03;5.20;;;1.08;;
81191;SDS011;70665;47.652;-2.730;2023-12-20T15:01:54;4.65;;;1.38;;
81191;SDS011;70665;47.652;-2.730;2023-12-20T15:04:20;4.68;;;1.13;;
81191;SDS011;70665;47.652;-2.730;2023-12-20T15:06:53;2.92;;;1.13;;
81191;SDS011;70665;47.652;-2.730;2023-12-20T15:09:19;7.32;;;1.70;;
81191;SDS011;70665;47.652;-2.730;2023-12-20T15:11:44;6.53;;;1.35;;